Seastreak Highlands — WDE4031 — position and weather

sailwx.info

Track history (hours):
 
Tides and Currents Weather Stations Pressure Air Temp Water Temp Dewpoint Dewpoint Depression Visibility Wind Speed Wind Dir Waves Ship Positions

Seastreak Highlands

Owner: Seastreak llc, atlantic highlands, NJ. More information available from US FCC via Universal Licensing System and Coast Guard Vessel Documentation Center.

Last reported at 2015-Aug-03 14:34 UTC. Time now 2015-Aug-03 15:13 UTC.
Position N 40°40' W 074°02'.

Length 44 m; draft 2 m.

Type: High speed craft. MMSI: 367347670.

Date/timePositionNaut miles runAvg speedWind from/ knotsBaromVisibWave heightAir tempDewpointWater temp
2015-Aug-03 14:34N 40°40' W 074°02'5 4.6
2015-Aug-03 13:23N 40°34' W 074°02'1113.2
2015-Aug-03 12:34N 40°45' W 073°58'2019.5
2015-Aug-03 11:33N 40°25' W 074°02'0 0.0
2015-Aug-03 10:32N 40°25' W 074°02'2 0.2
2015-Aug-02 23:33N 40°25' W 073°60'1919.4
2015-Aug-02 22:33N 40°44' W 073°58'1919.3
2015-Aug-02 21:33N 40°25' W 073°60'2020.1
2015-Aug-02 20:33N 40°45' W 073°58'1919.4
2015-Aug-02 19:33N 40°25' W 074°00'1 0.9
2015-Aug-02 18:33N 40°25' W 073°60'0 0.0
2015-Aug-02 17:24N 40°25' W 073°60'0 0.0
2015-Aug-02 16:27N 40°25' W 073°60'1 0.6
2015-Aug-02 15:31N 40°25' W 074°00'2020.6
2015-Aug-02 14:33N 40°45' W 073°58'2019.7
2015-Aug-02 13:33N 40°25' W 074°00'1212.2
2015-Aug-02 12:34N 40°37' W 074°03'9 8.6
2015-Aug-02 11:34N 40°45' W 073°58'2019.9
2015-Aug-02 10:33N 40°25' W 073°60'0 0.0
2015-Aug-01 23:33N 40°25' W 073°60'1818.1
2015-Aug-01 22:34N 40°43' W 073°58'1612.8
2015-Aug-01 21:21N 40°27' W 074°01'1620.1
2015-Aug-01 20:34N 40°43' W 073°58'1817.9
2015-Aug-01 19:32N 40°25' W 074°00'0 0.1
2015-Aug-01 17:32N 40°25' W 073°60'0 0.0
2015-Aug-01 16:33N 40°25' W 073°60'3 3.1
2015-Aug-01 15:32N 40°28' W 074°01'1717.6
2015-Aug-01 14:33N 40°45' W 073°58'1712.9
2015-Aug-01 13:15N 40°28' W 074°00'1217.8
2015-Aug-01 12:34N 40°40' W 074°02'5 5.2
2015-Aug-01 11:34N 40°45' W 073°58'2019.7
2015-Aug-01 10:33N 40°25' W 074°00'0 0.0
2015-Aug-01 00:15N 40°25' W 073°60'0 0.0
2015-Jul-31 23:33N 40°25' W 073°60'2020.2
2015-Jul-31 22:34N 40°45' W 073°58'12 8.3
2015-Jul-31 21:07N 40°33' W 074°02'1017.5
2015-Jul-31 20:34N 40°42' W 073°59'2 2.3
2015-Jul-31 19:33N 40°45' W 073°58'0 0.0
2015-Jul-31 18:33N 40°45' W 073°58'0 0.0
2015-Jul-31 17:33N 40°45' W 073°58'0 0.0
2015-Jul-31 16:33N 40°45' W 073°58'0 0.0
2015-Jul-31 15:33N 40°45' W 073°58'8 8.4
2015-Jul-31 14:34N 40°37' W 074°03'0 0.3
2015-Jul-31 13:34N 40°37' W 074°03'0 0.3
2015-Jul-31 12:34N 40°37' W 074°03'4 4.2
2015-Jul-31 11:33N 40°33' W 074°02'5 5.4
2015-Jul-31 10:34N 40°39' W 074°02'1413.4
2015-Jul-31 09:33N 40°25' W 074°02'0 0.0
2015-Jul-31 08:33N 40°25' W 074°02'0 0.0
2015-Jul-31 07:33N 40°25' W 074°02'0 0.0
2015-Jul-31 06:33N 40°25' W 074°02'0 0.0
2015-Jul-31 05:34N 40°25' W 074°02'0 0.0
2015-Jul-31 04:33N 40°25' W 074°02'0 0.0
2015-Jul-31 03:34N 40°25' W 074°02'0 0.0
2015-Jul-31 02:33N 40°25' W 074°02'0 0.0
2015-Jul-31 01:34N 40°25' W 074°02'0 0.0
2015-Jul-31 00:33N 40°25' W 074°02'0 0.0
2015-Jul-30 23:25N 40°25' W 074°02'0 0.0
2015-Jul-30 22:29N 40°25' W 074°02'0 0.0
2015-Jul-30 21:32N 40°25' W 074°02'0 0.0
2015-Jul-30 20:33N 40°25' W 074°02'0 0.0
2015-Jul-30 19:34N 40°25' W 074°02'0 0.0
2015-Jul-30 18:33N 40°25' W 074°02'0 0.0
2015-Jul-30 17:32N 40°25' W 074°02'0 0.0
2015-Jul-30 16:32N 40°25' W 074°02'0 0.0
2015-Jul-30 15:31N 40°25' W 074°02'0 0.0
2015-Jul-30 12:25N 40°25' W 074°02'0 0.0
2015-Jul-30 11:17N 40°25' W 074°02'0 0.0
2015-Jul-30 10:30N 40°25' W 074°02'0 0.0
2015-Jul-30 09:32N 40°25' W 074°02'0 0.0
2015-Jul-30 08:33N 40°25' W 074°02'0 0.0
2015-Jul-30 07:31N 40°25' W 074°02'0 0.0
2015-Jul-30 06:32N 40°25' W 074°02'0 0.0
2015-Jul-30 04:12N 40°25' W 074°02'0 0.0
2015-Jul-30 03:33N 40°25' W 074°02'0 0.0
2015-Jul-30 02:31N 40°25' W 074°02'1 1.5
2015-Jul-30 01:33N 40°25' W 074°00'1 1.5
2015-Jul-30 00:32N 40°25' W 074°02'2020.0
2015-Jul-29 23:33N 40°45' W 073°58'3 1.4
2015-Jul-29 21:33N 40°42' W 074°00'7 6.6
2015-Jul-29 20:33N 40°36' W 074°02'4 3.8
2015-Jul-29 19:28N 40°32' W 074°02'1314.7
2015-Jul-29 18:33N 40°45' W 073°58'0 0.0
2015-Jul-29 17:33N 40°45' W 073°58'0 0.0
2015-Jul-29 16:33N 40°45' W 073°58'0 0.0
2015-Jul-29 15:33N 40°45' W 073°58'0 0.0
2015-Jul-29 14:33N 40°45' W 073°58'5 5.1
2015-Jul-29 13:34N 40°40' W 074°02'4 3.9
2015-Jul-29 12:33N 40°37' W 074°03'3 3.0
2015-Jul-29 11:34N 40°39' W 074°02'1514.9
2015-Jul-29 10:33N 40°25' W 073°60'2 1.8
2015-Jul-29 09:33N 40°25' W 074°02'0 0.0
2015-Jul-29 08:33N 40°25' W 074°02'0 0.0
2015-Jul-29 07:33N 40°25' W 074°02'0 0.0
2015-Jul-29 06:33N 40°25' W 074°02'0 0.0
2015-Jul-29 05:33N 40°25' W 074°02'0 0.0
2015-Jul-29 04:33N 40°25' W 074°02'0 0.0
2015-Jul-29 03:33N 40°25' W 074°02'0 0.0
2015-Jul-29 02:33N 40°25' W 074°02'0 0.0
2015-Jul-29 01:33N 40°25' W 074°02'0 0.4
2015-Jul-29 00:33N 40°25' W 074°02'1818.4
2015-Jul-28 23:34N 40°44' W 073°58'1918.5
2015-Jul-28 22:32N 40°25' W 073°60'1717.6
2015-Jul-28 21:33N 40°42' W 074°01'8 7.8
2015-Jul-28 20:34N 40°34' W 074°02'1 0.9
2015-Jul-28 19:29N 40°33' W 074°03'1212.6
2015-Jul-28 18:34N 40°45' W 073°58'0 0.0
2015-Jul-28 17:34N 40°45' W 073°58'0 0.0
2015-Jul-28 16:34N 40°45' W 073°58'0 0.0
2015-Jul-28 15:34N 40°45' W 073°58'0 0.0
2015-Jul-28 14:34N 40°45' W 073°58'8 7.7
2015-Jul-28 13:33N 40°38' W 074°03'2 2.2
2015-Jul-28 12:34N 40°36' W 074°03'3 3.2
2015-Jul-28 11:34N 40°39' W 074°02'1414.2
2015-Jul-28 10:33N 40°25' W 073°60'2 1.8
2015-Jul-28 09:33N 40°25' W 074°02'0 0.0
2015-Jul-28 08:32N 40°25' W 074°02'0 0.0
2015-Jul-28 07:32N 40°25' W 074°02'0 0.0
2015-Jul-28 06:27N 40°25' W 074°02'0 0.0
2015-Jul-28 05:33N 40°25' W 074°02'0 0.0
2015-Jul-28 04:33N 40°25' W 074°02'0 0.0
2015-Jul-28 03:33N 40°25' W 074°02'0 0.0
2015-Jul-28 02:33N 40°25' W 074°02'0 0.0
2015-Jul-28 01:33N 40°25' W 074°02'2 1.7
2015-Jul-28 00:33N 40°25' W 073°60'1918.8
2015-Jul-27 23:34N 40°43' W 073°58'1816.3
2015-Jul-27 22:27N 40°25' W 074°01'1618.2
2015-Jul-27 21:34N 40°42' W 074°01'5 5.4
2015-Jul-27 20:33N 40°37' W 074°03'5 4.8
2015-Jul-27 19:28N 40°31' W 074°02'1415.1
2015-Jul-27 18:33N 40°45' W 073°58'0 0.0
2015-Jul-27 17:33N 40°45' W 073°58'0 0.0
2015-Jul-27 16:32N 40°45' W 073°58'0 0.0
2015-Jul-27 15:33N 40°45' W 073°58'0 0.0
2015-Jul-27 14:33N 40°45' W 073°58'4 4.2
2015-Jul-27 13:34N 40°41' W 074°01'9 9.2
2015-Jul-27 12:33N 40°32' W 074°02'7 7.2
2015-Jul-27 11:33N 40°39' W 074°02'14 3.1
2015-Jul-27 07:07N 40°25' W 074°02'0 0.0
2015-Jul-27 06:34N 40°25' W 074°02'0 0.0
2015-Jul-27 05:29N 40°25' W 074°02'0 0.0
2015-Jul-27 04:25N 40°25' W 074°02'0 0.0
2015-Jul-27 03:33N 40°25' W 074°02'0 0.0
2015-Jul-27 02:31N 40°25' W 074°02'0 0.0
2015-Jul-27 01:32N 40°25' W 074°02'0 0.0
2015-Jul-27 00:34N 40°25' W 074°02'1 0.2
2015-Jul-26 22:28N 40°25' W 074°01'9 8.3
2015-Jul-26 21:25N 40°34' W 074°02'1012.0
2015-Jul-26 20:34N 40°44' W 073°58'9 1.7
2015-Jul-26 15:20N 40°36' W 074°02'912.2
2015-Jul-26 14:33N 40°45' W 073°58'2017.1
2015-Jul-26 13:23N 40°25' W 073°60'1416.8
2015-Jul-26 12:33N 40°38' W 074°02'4 4.3
2015-Jul-26 11:34N 40°42' W 074°00'17 1.5
2015-Jul-26 00:31N 40°25' W 074°02'7 7.3
2015-Jul-25 23:32N 40°32' W 074°02'9 9.6
2015-Jul-25 22:34N 40°41' W 074°00'6 4.7
2015-Jul-25 21:14N 40°35' W 074°03'1014.6
2015-Jul-25 20:34N 40°45' W 073°58'2020.0
2015-Jul-25 19:33N 40°25' W 073°60'0 0.0
2015-Jul-25 18:33N 40°25' W 073°60'0 0.0
2015-Jul-25 17:32N 40°25' W 073°60'0 0.0
2015-Jul-25 16:28N 40°25' W 073°60'1112.3
2015-Jul-25 15:33N 40°36' W 074°03'7 6.8
2015-Jul-25 14:33N 40°42' W 074°00'1411.4
2015-Jul-25 13:18N 40°28' W 074°00'1419.2
2015-Jul-25 12:33N 40°42' W 074°00'1 0.8
2015-Jul-25 11:34N 40°42' W 073°59'1716.5
2015-Jul-25 10:31N 40°25' W 074°00'1 0.1
2015-Jul-25 01:33N 40°25' W 073°60'2 1.7
2015-Jul-25 00:33N 40°25' W 074°02'2019.7
2015-Jul-24 23:34N 40°45' W 073°58'3 1.4
2015-Jul-24 21:33N 40°42' W 074°00'1211.7
2015-Jul-24 20:33N 40°31' W 074°02'2 2.2
2015-Jul-24 19:31N 40°33' W 074°02'1212.7
2015-Jul-24 18:33N 40°45' W 073°58'0 0.0
2015-Jul-24 17:33N 40°45' W 073°58'0 0.0
2015-Jul-24 16:33N 40°45' W 073°58'0 0.0
2015-Jul-24 15:33N 40°45' W 073°58'  
Track history (hours):
 
Tides and Currents Weather Stations Pressure Air Temp Water Temp Dewpoint Dewpoint Depression Visibility Wind Speed Wind Dir Waves Ship Positions

Seastreak Highlands

Owner: Seastreak llc, atlantic highlands, NJ. More information available from US FCC via Universal Licensing System and Coast Guard Vessel Documentation Center.

Last reported at 2015-Aug-03 14:34 UTC. Time now 2015-Aug-03 15:13 UTC.
Position N 40°40' W 074°02'.

Length 44 m; draft 2 m.

Type: High speed craft. MMSI: 367347670.

Date/timePositionNaut miles runAvg speedWind from/ knotsBaromVisibWave heightAir tempDewpointWater temp
2015-Aug-03 14:34N 40°40' W 074°02'5 4.6
2015-Aug-03 13:23N 40°34' W 074°02'1113.2
2015-Aug-03 12:34N 40°45' W 073°58'2019.5
2015-Aug-03 11:33N 40°25' W 074°02'0 0.0
2015-Aug-03 10:32N 40°25' W 074°02'2 0.2
2015-Aug-02 23:33N 40°25' W 073°60'1919.4
2015-Aug-02 22:33N 40°44' W 073°58'1919.3
2015-Aug-02 21:33N 40°25' W 073°60'2020.1
2015-Aug-02 20:33N 40°45' W 073°58'1919.4
2015-Aug-02 19:33N 40°25' W 074°00'1 0.9
2015-Aug-02 18:33N 40°25' W 073°60'0 0.0
2015-Aug-02 17:24N 40°25' W 073°60'0 0.0
2015-Aug-02 16:27N 40°25' W 073°60'1 0.6
2015-Aug-02 15:31N 40°25' W 074°00'2020.6
2015-Aug-02 14:33N 40°45' W 073°58'2019.7
2015-Aug-02 13:33N 40°25' W 074°00'1212.2
2015-Aug-02 12:34N 40°37' W 074°03'9 8.6
2015-Aug-02 11:34N 40°45' W 073°58'2019.9
2015-Aug-02 10:33N 40°25' W 073°60'0 0.0
2015-Aug-01 23:33N 40°25' W 073°60'1818.1
2015-Aug-01 22:34N 40°43' W 073°58'1612.8
2015-Aug-01 21:21N 40°27' W 074°01'1620.1
2015-Aug-01 20:34N 40°43' W 073°58'1817.9
2015-Aug-01 19:32N 40°25' W 074°00'0 0.1
2015-Aug-01 17:32N 40°25' W 073°60'0 0.0
2015-Aug-01 16:33N 40°25' W 073°60'3 3.1
2015-Aug-01 15:32N 40°28' W 074°01'1717.6
2015-Aug-01 14:33N 40°45' W 073°58'1712.9
2015-Aug-01 13:15N 40°28' W 074°00'1217.8
2015-Aug-01 12:34N 40°40' W 074°02'5 5.2
2015-Aug-01 11:34N 40°45' W 073°58'2019.7
2015-Aug-01 10:33N 40°25' W 074°00'0 0.0
2015-Aug-01 00:15N 40°25' W 073°60'0 0.0
2015-Jul-31 23:33N 40°25' W 073°60'2020.2
2015-Jul-31 22:34N 40°45' W 073°58'12 8.3
2015-Jul-31 21:07N 40°33' W 074°02'1017.5
2015-Jul-31 20:34N 40°42' W 073°59'2 2.3
2015-Jul-31 19:33N 40°45' W 073°58'0 0.0
2015-Jul-31 18:33N 40°45' W 073°58'0 0.0
2015-Jul-31 17:33N 40°45' W 073°58'0 0.0
2015-Jul-31 16:33N 40°45' W 073°58'0 0.0
2015-Jul-31 15:33N 40°45' W 073°58'8 8.4
2015-Jul-31 14:34N 40°37' W 074°03'0 0.3
2015-Jul-31 13:34N 40°37' W 074°03'0 0.3
2015-Jul-31 12:34N 40°37' W 074°03'4 4.2
2015-Jul-31 11:33N 40°33' W 074°02'5 5.4
2015-Jul-31 10:34N 40°39' W 074°02'1413.4
2015-Jul-31 09:33N 40°25' W 074°02'0 0.0
2015-Jul-31 08:33N 40°25' W 074°02'0 0.0
2015-Jul-31 07:33N 40°25' W 074°02'0 0.0
2015-Jul-31 06:33N 40°25' W 074°02'0 0.0
2015-Jul-31 05:34N 40°25' W 074°02'0 0.0
2015-Jul-31 04:33N 40°25' W 074°02'0 0.0
2015-Jul-31 03:34N 40°25' W 074°02'0 0.0
2015-Jul-31 02:33N 40°25' W 074°02'0 0.0
2015-Jul-31 01:34N 40°25' W 074°02'0 0.0
2015-Jul-31 00:33N 40°25' W 074°02'0 0.0
2015-Jul-30 23:25N 40°25' W 074°02'0 0.0
2015-Jul-30 22:29N 40°25' W 074°02'0 0.0
2015-Jul-30 21:32N 40°25' W 074°02'0 0.0
2015-Jul-30 20:33N 40°25' W 074°02'0 0.0
2015-Jul-30 19:34N 40°25' W 074°02'0 0.0
2015-Jul-30 18:33N 40°25' W 074°02'0 0.0
2015-Jul-30 17:32N 40°25' W 074°02'0 0.0
2015-Jul-30 16:32N 40°25' W 074°02'0 0.0
2015-Jul-30 15:31N 40°25' W 074°02'0 0.0
2015-Jul-30 12:25N 40°25' W 074°02'0 0.0
2015-Jul-30 11:17N 40°25' W 074°02'0 0.0
2015-Jul-30 10:30N 40°25' W 074°02'0 0.0
2015-Jul-30 09:32N 40°25' W 074°02'0 0.0
2015-Jul-30 08:33N 40°25' W 074°02'0 0.0
2015-Jul-30 07:31N 40°25' W 074°02'0 0.0
2015-Jul-30 06:32N 40°25' W 074°02'0 0.0
2015-Jul-30 04:12N 40°25' W 074°02'0 0.0
2015-Jul-30 03:33N 40°25' W 074°02'0 0.0
2015-Jul-30 02:31N 40°25' W 074°02'1 1.5
2015-Jul-30 01:33N 40°25' W 074°00'1 1.5
2015-Jul-30 00:32N 40°25' W 074°02'2020.0
2015-Jul-29 23:33N 40°45' W 073°58'3 1.4
2015-Jul-29 21:33N 40°42' W 074°00'7 6.6
2015-Jul-29 20:33N 40°36' W 074°02'4 3.8
2015-Jul-29 19:28N 40°32' W 074°02'1314.7
2015-Jul-29 18:33N 40°45' W 073°58'0 0.0
2015-Jul-29 17:33N 40°45' W 073°58'0 0.0
2015-Jul-29 16:33N 40°45' W 073°58'0 0.0
2015-Jul-29 15:33N 40°45' W 073°58'0 0.0
2015-Jul-29 14:33N 40°45' W 073°58'5 5.1
2015-Jul-29 13:34N 40°40' W 074°02'4 3.9
2015-Jul-29 12:33N 40°37' W 074°03'3 3.0
2015-Jul-29 11:34N 40°39' W 074°02'1514.9
2015-Jul-29 10:33N 40°25' W 073°60'2 1.8
2015-Jul-29 09:33N 40°25' W 074°02'0 0.0
2015-Jul-29 08:33N 40°25' W 074°02'0 0.0
2015-Jul-29 07:33N 40°25' W 074°02'0 0.0
2015-Jul-29 06:33N 40°25' W 074°02'0 0.0
2015-Jul-29 05:33N 40°25' W 074°02'0 0.0
2015-Jul-29 04:33N 40°25' W 074°02'0 0.0
2015-Jul-29 03:33N 40°25' W 074°02'0 0.0
2015-Jul-29 02:33N 40°25' W 074°02'0 0.0
2015-Jul-29 01:33N 40°25' W 074°02'0 0.4
2015-Jul-29 00:33N 40°25' W 074°02'1818.4
2015-Jul-28 23:34N 40°44' W 073°58'1918.5
2015-Jul-28 22:32N 40°25' W 073°60'1717.6
2015-Jul-28 21:33N 40°42' W 074°01'8 7.8
2015-Jul-28 20:34N 40°34' W 074°02'1 0.9
2015-Jul-28 19:29N 40°33' W 074°03'1212.6
2015-Jul-28 18:34N 40°45' W 073°58'0 0.0
2015-Jul-28 17:34N 40°45' W 073°58'0 0.0
2015-Jul-28 16:34N 40°45' W 073°58'0 0.0
2015-Jul-28 15:34N 40°45' W 073°58'0 0.0
2015-Jul-28 14:34N 40°45' W 073°58'8 7.7
2015-Jul-28 13:33N 40°38' W 074°03'2 2.2
2015-Jul-28 12:34N 40°36' W 074°03'3 3.2
2015-Jul-28 11:34N 40°39' W 074°02'1414.2
2015-Jul-28 10:33N 40°25' W 073°60'2 1.8
2015-Jul-28 09:33N 40°25' W 074°02'0 0.0
2015-Jul-28 08:32N 40°25' W 074°02'0 0.0
2015-Jul-28 07:32N 40°25' W 074°02'0 0.0
2015-Jul-28 06:27N 40°25' W 074°02'0 0.0
2015-Jul-28 05:33N 40°25' W 074°02'0 0.0
2015-Jul-28 04:33N 40°25' W 074°02'0 0.0
2015-Jul-28 03:33N 40°25' W 074°02'0 0.0
2015-Jul-28 02:33N 40°25' W 074°02'0 0.0
2015-Jul-28 01:33N 40°25' W 074°02'2 1.7
2015-Jul-28 00:33N 40°25' W 073°60'1918.8
2015-Jul-27 23:34N 40°43' W 073°58'1816.3
2015-Jul-27 22:27N 40°25' W 074°01'1618.2
2015-Jul-27 21:34N 40°42' W 074°01'5 5.4
2015-Jul-27 20:33N 40°37' W 074°03'5 4.8
2015-Jul-27 19:28N 40°31' W 074°02'1415.1
2015-Jul-27 18:33N 40°45' W 073°58'0 0.0
2015-Jul-27 17:33N 40°45' W 073°58'0 0.0
2015-Jul-27 16:32N 40°45' W 073°58'0 0.0
2015-Jul-27 15:33N 40°45' W 073°58'0 0.0
2015-Jul-27 14:33N 40°45' W 073°58'4 4.2
2015-Jul-27 13:34N 40°41' W 074°01'9 9.2
2015-Jul-27 12:33N 40°32' W 074°02'7 7.2
2015-Jul-27 11:33N 40°39' W 074°02'14 3.1
2015-Jul-27 07:07N 40°25' W 074°02'0 0.0
2015-Jul-27 06:34N 40°25' W 074°02'0 0.0
2015-Jul-27 05:29N 40°25' W 074°02'0 0.0
2015-Jul-27 04:25N 40°25' W 074°02'0 0.0
2015-Jul-27 03:33N 40°25' W 074°02'0 0.0
2015-Jul-27 02:31N 40°25' W 074°02'0 0.0
2015-Jul-27 01:32N 40°25' W 074°02'0 0.0
2015-Jul-27 00:34N 40°25' W 074°02'1 0.2
2015-Jul-26 22:28N 40°25' W 074°01'9 8.3
2015-Jul-26 21:25N 40°34' W 074°02'1012.0
2015-Jul-26 20:34N 40°44' W 073°58'9 1.7
2015-Jul-26 15:20N 40°36' W 074°02'912.2
2015-Jul-26 14:33N 40°45' W 073°58'2017.1
2015-Jul-26 13:23N 40°25' W 073°60'1416.8
2015-Jul-26 12:33N 40°38' W 074°02'4 4.3
2015-Jul-26 11:34N 40°42' W 074°00'17 1.5
2015-Jul-26 00:31N 40°25' W 074°02'7 7.3
2015-Jul-25 23:32N 40°32' W 074°02'9 9.6
2015-Jul-25 22:34N 40°41' W 074°00'6 4.7
2015-Jul-25 21:14N 40°35' W 074°03'1014.6
2015-Jul-25 20:34N 40°45' W 073°58'2020.0
2015-Jul-25 19:33N 40°25' W 073°60'0 0.0
2015-Jul-25 18:33N 40°25' W 073°60'0 0.0
2015-Jul-25 17:32N 40°25' W 073°60'0 0.0
2015-Jul-25 16:28N 40°25' W 073°60'1112.3
2015-Jul-25 15:33N 40°36' W 074°03'7 6.8
2015-Jul-25 14:33N 40°42' W 074°00'1411.4
2015-Jul-25 13:18N 40°28' W 074°00'1419.2
2015-Jul-25 12:33N 40°42' W 074°00'1 0.8
2015-Jul-25 11:34N 40°42' W 073°59'1716.5
2015-Jul-25 10:31N 40°25' W 074°00'1 0.1
2015-Jul-25 01:33N 40°25' W 073°60'2 1.7
2015-Jul-25 00:33N 40°25' W 074°02'2019.7
2015-Jul-24 23:34N 40°45' W 073°58'3 1.4
2015-Jul-24 21:33N 40°42' W 074°00'1211.7
2015-Jul-24 20:33N 40°31' W 074°02'2 2.2
2015-Jul-24 19:31N 40°33' W 074°02'1212.7
2015-Jul-24 18:33N 40°45' W 073°58'0 0.0
2015-Jul-24 17:33N 40°45' W 073°58'0 0.0
2015-Jul-24 16:33N 40°45' W 073°58'0 0.0
2015-Jul-24 15:33N 40°45' W 073°58'  

Dump ship's entire track history